createdAt,value
2018-07-11T00:00:59.172Z,0
2018-07-11T00:01:59.132Z,0
2018-07-11T00:02:59.109Z,0
2018-07-11T00:03:59.168Z,0
2018-07-11T00:04:59.132Z,0
2018-07-11T00:05:59.160Z,0
2018-07-11T00:06:59.105Z,0
2018-07-11T00:07:59.054Z,0
2018-07-11T00:08:59.080Z,0
2018-07-11T00:09:59.134Z,0
2018-07-11T00:10:59.124Z,0
2018-07-11T00:11:59.059Z,0
2018-07-11T00:12:59.144Z,0
2018-07-11T00:13:59.136Z,0
2018-07-11T00:14:59.167Z,0
2018-07-11T00:15:59.046Z,0
2018-07-11T00:16:59.004Z,0
2018-07-11T00:17:59.179Z,0
2018-07-11T00:18:59.139Z,0
2018-07-11T00:19:59.119Z,0
2018-07-11T00:20:59.141Z,0
2018-07-11T00:21:59.125Z,0
2018-07-11T00:22:59.183Z,0
2018-07-11T00:23:59.051Z,0
2018-07-11T00:24:59.145Z,0
2018-07-11T00:25:59.048Z,0
2018-07-11T00:26:59.066Z,0
2018-07-11T00:27:59.184Z,0
2018-07-11T00:28:59.149Z,0
2018-07-11T00:29:59.123Z,0
2018-07-11T00:30:59.120Z,0
2018-07-11T00:31:59.212Z,0
2018-07-11T00:32:59.072Z,0
2018-07-11T00:33:59.076Z,0
2018-07-11T00:34:59.187Z,0
2018-07-11T00:35:59.117Z,0
2018-07-11T00:36:59.187Z,0
2018-07-11T00:37:59.012Z,0
2018-07-11T00:38:59.014Z,0
2018-07-11T00:39:59.105Z,0
2018-07-11T00:40:59.106Z,0
2018-07-11T00:41:59.108Z,0
2018-07-11T00:42:59.067Z,0
2018-07-11T00:43:59.064Z,0
2018-07-11T00:44:59.068Z,0
2018-07-11T00:45:59.019Z,0
2018-07-11T00:46:59.113Z,0
2018-07-11T00:47:59.159Z,0
2018-07-11T00:48:59.086Z,0
2018-07-11T00:49:59.164Z,0
2018-07-11T00:50:59.167Z,0
2018-07-11T00:51:59.087Z,0
2018-07-11T00:52:59.163Z,0
2018-07-11T00:53:59.048Z,0
2018-07-11T00:54:59.165Z,0
2018-07-11T00:55:59.167Z,0
2018-07-11T00:56:59.091Z,0
2018-07-11T00:57:59.142Z,0
2018-07-11T00:58:59.125Z,0
2018-07-11T00:59:59.170Z,0
2018-07-11T01:00:59.091Z,0
2018-07-11T01:01:59.150Z,0
2018-07-11T01:02:59.100Z,0
2018-07-11T01:03:59.154Z,0
2018-07-11T01:04:59.212Z,0
2018-07-11T01:05:59.077Z,0
2018-07-11T01:06:59.141Z,0
2018-07-11T01:07:59.134Z,0
2018-07-11T01:08:59.210Z,0
2018-07-11T01:09:59.173Z,0
2018-07-11T01:10:59.217Z,0
2018-07-11T01:11:59.182Z,0
2018-07-11T01:12:59.255Z,0
2018-07-11T01:13:59.161Z,0
2018-07-11T01:14:59.150Z,0
2018-07-11T01:15:59.142Z,0
2018-07-11T01:16:59.152Z,0
2018-07-11T01:17:59.045Z,0
2018-07-11T01:18:59.044Z,0
2018-07-11T01:19:59.046Z,0
2018-07-11T01:20:59.039Z,0
2018-07-11T01:21:59.134Z,0
2018-07-11T01:22:59.132Z,0
2018-07-11T01:23:59.107Z,0
2018-07-11T01:24:59.136Z,0
2018-07-11T01:25:59.101Z,0
2018-07-11T01:26:59.139Z,0
2018-07-11T01:27:59.189Z,0
2018-07-11T01:28:59.191Z,0
2018-07-11T01:29:59.227Z,0
2018-07-11T01:30:59.197Z,0
2018-07-11T01:31:59.194Z,0
2018-07-11T01:32:59.193Z,0
2018-07-11T01:33:59.229Z,0
2018-07-11T01:34:59.115Z,0
2018-07-11T01:35:59.156Z,0
2018-07-11T01:36:59.196Z,0
2018-07-11T01:37:59.133Z,0
2018-07-11T01:38:59.125Z,0
2018-07-11T01:39:59.075Z,0
2018-07-11T01:40:59.120Z,0
2018-07-11T01:41:59.117Z,0
2018-07-11T01:42:59.129Z,0
2018-07-11T01:43:59.196Z,0
2018-07-11T01:44:59.127Z,0
2018-07-11T01:45:59.120Z,0
2018-07-11T01:46:59.106Z,0
2018-07-11T01:47:59.211Z,0
2018-07-11T01:48:59.179Z,0
2018-07-11T01:49:59.211Z,0
2018-07-11T01:50:59.107Z,0
2018-07-11T01:51:59.106Z,0
2018-07-11T01:52:59.172Z,0
2018-07-11T01:53:59.183Z,0
2018-07-11T01:54:59.147Z,0
2018-07-11T01:55:59.119Z,0
2018-07-11T01:56:59.248Z,0
2018-07-11T01:57:59.173Z,0
2018-07-11T01:58:59.225Z,0
2018-07-11T01:59:59.215Z,0
2018-07-11T02:00:59.234Z,0
2018-07-11T02:01:59.112Z,0
2018-07-11T02:02:59.216Z,0
2018-07-11T02:03:59.224Z,0
2018-07-11T02:04:59.272Z,0
2018-07-11T02:05:59.147Z,0
2018-07-11T02:06:59.220Z,0
2018-07-11T02:07:59.141Z,0
2018-07-11T02:08:59.249Z,0
2018-07-11T02:09:59.176Z,0
2018-07-11T02:10:59.183Z,0
2018-07-11T02:11:59.190Z,0
2018-07-11T02:12:59.223Z,0
2018-07-11T02:13:59.250Z,0
2018-07-11T02:14:59.259Z,0
2018-07-11T02:15:59.252Z,0
2018-07-11T02:16:59.255Z,0
2018-07-11T02:17:59.223Z,0
2018-07-11T02:18:59.158Z,0
2018-07-11T02:19:59.225Z,0
2018-07-11T02:20:59.170Z,0
2018-07-11T02:21:59.166Z,0
2018-07-11T02:22:59.224Z,0
2018-07-11T02:23:59.165Z,0
2018-07-11T02:24:59.163Z,0
2018-07-11T02:25:59.230Z,0
2018-07-11T02:26:59.163Z,0
2018-07-11T02:27:59.197Z,4
2018-07-11T02:28:59.131Z,4
2018-07-11T02:29:59.231Z,4
2018-07-11T02:30:59.318Z,4
2018-07-11T02:31:59.230Z,4
2018-07-11T02:32:59.273Z,4
2018-07-11T02:33:59.240Z,4
2018-07-11T02:34:59.238Z,4
2018-07-11T02:35:59.158Z,4
2018-07-11T02:36:59.159Z,8
2018-07-11T02:37:59.194Z,8
2018-07-11T02:38:59.164Z,8
2018-07-11T02:39:59.146Z,8
2018-07-11T02:40:59.235Z,12
2018-07-11T02:41:59.190Z,12
2018-07-11T02:42:59.230Z,16
2018-07-11T02:43:59.161Z,16
2018-07-11T02:44:59.198Z,16
2018-07-11T02:45:59.231Z,20
2018-07-11T02:46:59.239Z,20
2018-07-11T02:47:59.190Z,20
2018-07-11T02:48:59.193Z,24
2018-07-11T02:49:59.193Z,32
2018-07-11T02:50:59.109Z,36
2018-07-11T02:51:59.153Z,40
2018-07-11T02:52:59.155Z,48
2018-07-11T02:53:59.193Z,60
2018-07-11T02:54:59.104Z,64
2018-07-11T02:55:59.200Z,72
2018-07-11T02:56:59.111Z,80
2018-07-11T02:57:59.168Z,92
2018-07-11T02:58:59.257Z,104
2018-07-11T02:59:59.253Z,112
2018-07-11T03:00:59.227Z,124
2018-07-11T03:01:59.226Z,140
2018-07-11T03:02:59.157Z,148
2018-07-11T03:03:59.282Z,156
2018-07-11T03:04:59.284Z,164
2018-07-11T03:05:59.263Z,176
2018-07-11T03:06:59.160Z,196
2018-07-11T03:07:59.217Z,212
2018-07-11T03:08:59.177Z,236
2018-07-11T03:09:59.288Z,256
2018-07-11T03:10:59.181Z,260
2018-07-11T03:11:59.266Z,268
2018-07-11T03:12:59.299Z,280
2018-07-11T03:13:59.297Z,316
2018-07-11T03:14:59.260Z,356
2018-07-11T03:15:59.166Z,400
2018-07-11T03:16:59.294Z,460
2018-07-11T03:17:59.172Z,520
2018-07-11T03:18:59.261Z,528
2018-07-11T03:19:59.270Z,540
2018-07-11T03:20:59.264Z,588
2018-07-11T03:21:59.262Z,672
2018-07-11T03:22:59.261Z,736
2018-07-11T03:23:59.187Z,764
2018-07-11T03:24:59.261Z,736
2018-07-11T03:25:59.260Z,696
2018-07-11T03:26:59.266Z,716
2018-07-11T03:27:59.270Z,744
2018-07-11T03:28:59.173Z,768
2018-07-11T03:29:59.274Z,824
2018-07-11T03:30:59.274Z,872
2018-07-11T03:31:59.316Z,944
2018-07-11T03:32:59.311Z,1024
2018-07-11T03:33:59.305Z,1060
2018-07-11T03:34:59.247Z,1084
2018-07-11T03:35:59.284Z,1140
2018-07-11T03:36:59.199Z,1224
2018-07-11T03:37:59.280Z,1248
2018-07-11T03:38:59.281Z,1256
2018-07-11T03:39:59.213Z,1280
2018-07-11T03:40:59.209Z,1288
2018-07-11T03:41:59.166Z,1300
2018-07-11T03:42:59.280Z,1360
2018-07-11T03:43:59.283Z,1424
2018-07-11T03:44:59.240Z,1496
2018-07-11T03:45:59.250Z,1628
2018-07-11T03:46:59.284Z,1904
2018-07-11T03:47:59.325Z,2120
2018-07-11T03:48:59.250Z,2248
2018-07-11T03:49:59.324Z,2404
2018-07-11T03:50:59.310Z,2584
2018-07-11T03:51:59.268Z,3220
2018-07-11T03:52:59.316Z,3456
2018-07-11T03:53:59.251Z,3648
2018-07-11T03:54:59.267Z,3932
2018-07-11T03:55:59.262Z,4120
2018-07-11T03:56:59.273Z,3892
2018-07-11T03:57:59.289Z,3944
2018-07-11T03:58:59.193Z,4200
2018-07-11T03:59:59.251Z,4364
2018-07-11T04:00:59.220Z,4648
2018-07-11T04:01:59.231Z,4560
2018-07-11T04:02:59.294Z,4500
2018-07-11T04:03:59.224Z,4292
2018-07-11T04:04:59.342Z,4216
2018-07-11T04:05:59.231Z,4264
2018-07-11T04:06:59.295Z,4376
2018-07-11T04:07:59.225Z,4284
2018-07-11T04:08:59.302Z,4680
2018-07-11T04:09:59.297Z,5068
2018-07-11T04:10:59.233Z,5204
2018-07-11T04:11:59.295Z,5468
2018-07-11T04:12:59.298Z,5556
2018-07-11T04:13:59.233Z,5680
2018-07-11T04:14:59.303Z,5896
2018-07-11T04:15:59.236Z,6264
2018-07-11T04:16:59.236Z,6560
2018-07-11T04:17:59.221Z,6596
2018-07-11T04:18:59.260Z,6468
2018-07-11T04:19:59.222Z,6728
2018-07-11T04:20:59.212Z,6888
2018-07-11T04:21:59.298Z,6848
2018-07-11T04:22:59.197Z,6696
2018-07-11T04:23:59.227Z,6820
2018-07-11T04:24:59.246Z,6940
2018-07-11T04:25:59.303Z,6816
2018-07-11T04:26:59.303Z,6820
2018-07-11T04:27:59.246Z,6800
2018-07-11T04:28:59.304Z,7116
2018-07-11T04:29:59.212Z,7668
2018-07-11T04:30:59.262Z,8312
2018-07-11T04:31:59.236Z,8572
2018-07-11T04:32:59.243Z,8788
2018-07-11T04:33:59.251Z,9172
2018-07-11T04:34:59.249Z,10176
2018-07-11T04:35:59.297Z,11968
2018-07-11T04:36:59.181Z,12808
2018-07-11T04:37:59.269Z,12160
2018-07-11T04:38:59.275Z,11544
2018-07-11T04:39:59.212Z,11384
2018-07-11T04:40:59.250Z,11388
2018-07-11T04:41:59.297Z,11064
2018-07-11T04:42:59.200Z,10712
2018-07-11T04:43:59.277Z,10748
2018-07-11T04:44:59.271Z,10660
2018-07-11T04:45:59.237Z,10456
2018-07-11T04:46:59.228Z,10064
2018-07-11T04:47:59.321Z,8728
2018-07-11T04:48:59.256Z,8336
2018-07-11T04:49:59.209Z,8076
2018-07-11T04:50:59.258Z,7936
2018-07-11T04:51:59.335Z,8304
2018-07-11T04:52:59.261Z,9028
2018-07-11T04:53:59.263Z,9592
2018-07-11T04:54:59.263Z,9644
2018-07-11T04:55:59.260Z,9096
2018-07-11T04:56:59.282Z,8748
2018-07-11T04:57:59.329Z,9300
2018-07-11T04:58:59.265Z,9420
2018-07-11T04:59:59.264Z,9628
2018-07-11T05:00:59.267Z,10220
2018-07-11T05:01:59.263Z,10480
2018-07-11T05:02:59.269Z,10172
2018-07-11T05:03:59.268Z,9424
2018-07-11T05:04:59.350Z,8904
2018-07-11T05:05:59.342Z,8780
2018-07-11T05:06:59.270Z,9028
2018-07-11T05:07:59.274Z,9456
2018-07-11T05:08:59.298Z,9828
2018-07-11T05:09:59.376Z,10212
2018-07-11T05:10:59.362Z,10616
2018-07-11T05:11:59.341Z,10800
2018-07-11T05:12:59.265Z,10832
2018-07-11T05:13:59.360Z,11152
2018-07-11T05:14:59.269Z,11792
2018-07-11T05:15:59.347Z,12820
2018-07-11T05:16:59.327Z,14464
2018-07-11T05:17:59.264Z,16616
2018-07-11T05:18:59.274Z,18260
2018-07-11T05:19:59.347Z,18516
2018-07-11T05:20:59.281Z,17700
2018-07-11T05:21:59.382Z,16676
2018-07-11T05:22:59.390Z,15772
2018-07-11T05:23:59.236Z,14652
2018-07-11T05:24:59.284Z,13784
2018-07-11T05:25:59.357Z,13624
2018-07-11T05:26:59.354Z,13800
2018-07-11T05:27:59.298Z,14688
2018-07-11T05:28:59.346Z,15508
2018-07-11T05:29:59.259Z,15388
2018-07-11T05:30:59.308Z,14696
2018-07-11T05:31:59.349Z,14524
2018-07-11T05:32:59.272Z,14712
2018-07-11T05:33:59.346Z,15060
2018-07-11T05:34:59.349Z,15984
2018-07-11T05:35:59.349Z,16852
2018-07-11T05:36:59.281Z,16256
2018-07-11T05:37:59.356Z,15380
2018-07-11T05:38:59.388Z,14304
2018-07-11T05:39:59.360Z,14084
2018-07-11T05:40:59.376Z,14584
2018-07-11T05:41:59.356Z,14312
2018-07-11T05:42:59.263Z,13580
2018-07-11T05:43:59.386Z,13420
2018-07-11T05:44:59.360Z,12728
2018-07-11T05:45:59.303Z,12212
2018-07-11T05:46:59.372Z,12036
2018-07-11T05:47:59.329Z,12756
2018-07-11T05:48:59.325Z,13616
2018-07-11T05:49:59.391Z,13400
2018-07-11T05:50:59.404Z,13160
2018-07-11T05:51:59.391Z,13272
2018-07-11T05:52:59.347Z,13012
2018-07-11T05:53:59.365Z,12800
2018-07-11T05:54:59.341Z,12920
2018-07-11T05:55:59.390Z,12884
2018-07-11T05:56:59.395Z,12516
2018-07-11T05:57:59.331Z,13188
2018-07-11T05:58:59.278Z,13116
2018-07-11T05:59:59.249Z,13268
2018-07-11T06:00:59.329Z,12952
2018-07-11T06:01:59.316Z,12676
2018-07-11T06:02:59.234Z,12496
2018-07-11T06:03:59.321Z,12436
2018-07-11T06:04:59.281Z,12064
2018-07-11T06:05:59.288Z,11868
2018-07-11T06:06:59.281Z,11576
2018-07-11T06:07:59.235Z,10764
2018-07-11T06:08:59.364Z,9980
2018-07-11T06:09:59.377Z,9400
2018-07-11T06:10:59.248Z,9304
2018-07-11T06:11:59.287Z,9424
2018-07-11T06:12:59.367Z,9604
2018-07-11T06:13:59.283Z,10112
2018-07-11T06:14:59.249Z,11148
2018-07-11T06:15:59.251Z,12236
2018-07-11T06:16:59.290Z,12944
2018-07-11T06:17:59.454Z,13620
2018-07-11T06:18:59.382Z,14692
2018-07-11T06:19:59.319Z,16272
2018-07-11T06:20:59.318Z,16484
2018-07-11T06:21:59.387Z,16464
2018-07-11T06:22:59.397Z,17344
2018-07-11T06:23:59.320Z,18900
2018-07-11T06:24:59.391Z,19672
2018-07-11T06:25:59.325Z,21148
2018-07-11T06:26:59.321Z,22944
2018-07-11T06:27:59.440Z,25184
2018-07-11T06:28:59.297Z,26176
2018-07-11T06:29:59.394Z,25952
2018-07-11T06:30:59.371Z,25440
2018-07-11T06:31:59.391Z,25056
2018-07-11T06:32:59.393Z,25024
2018-07-11T06:33:59.430Z,24640
2018-07-11T06:34:59.318Z,25088
2018-07-11T06:35:59.396Z,25184
2018-07-11T06:36:59.391Z,25088
2018-07-11T06:37:59.334Z,23328
2018-07-11T06:38:59.294Z,23392
2018-07-11T06:39:59.334Z,23264
2018-07-11T06:40:59.334Z,24192
2018-07-11T06:41:59.273Z,26976
2018-07-11T06:42:59.375Z,27392
2018-07-11T06:43:59.325Z,27456
2018-07-11T06:44:59.288Z,28576
2018-07-11T06:45:59.353Z,30080
2018-07-11T06:46:59.297Z,30432
2018-07-11T06:47:59.323Z,29536
2018-07-11T06:48:59.409Z,29568
2018-07-11T06:49:59.406Z,29408
2018-07-11T06:50:59.435Z,28960
2018-07-11T06:51:59.374Z,27424
2018-07-11T06:52:59.385Z,23488
2018-07-11T06:53:59.372Z,19276
2018-07-11T06:54:59.381Z,16504
2018-07-11T06:55:59.455Z,14576
2018-07-11T06:56:59.371Z,13612
2018-07-11T06:57:59.447Z,14568
2018-07-11T06:58:59.345Z,16296
2018-07-11T06:59:59.432Z,16988
2018-07-11T07:00:59.371Z,16816
2018-07-11T07:01:59.374Z,16860
2018-07-11T07:02:59.348Z,17024
2018-07-11T07:03:59.350Z,17408
2018-07-11T07:04:59.416Z,17876
2018-07-11T07:05:59.351Z,18580
2018-07-11T07:06:59.354Z,20772
2018-07-11T07:07:59.417Z,22304
2018-07-11T07:08:59.376Z,21212
2018-07-11T07:09:59.418Z,20880
2018-07-11T07:10:59.421Z,20500
2018-07-11T07:11:59.422Z,19752
2018-07-11T07:12:59.356Z,19696
2018-07-11T07:13:59.458Z,21248
2018-07-11T07:14:59.426Z,22016
2018-07-11T07:15:59.351Z,22976
2018-07-11T07:16:59.421Z,21448
2018-07-11T07:17:59.369Z,19872
2018-07-11T07:18:59.434Z,19512
2018-07-11T07:19:59.359Z,20004
2018-07-11T07:20:59.429Z,20248
2018-07-11T07:21:59.359Z,23584
2018-07-11T07:22:59.428Z,27776
2018-07-11T07:23:59.364Z,30816
2018-07-11T07:24:59.432Z,31872
2018-07-11T07:25:59.359Z,32096
2018-07-11T07:26:59.391Z,32288
2018-07-11T07:27:59.368Z,29440
2018-07-11T07:28:59.465Z,28384
2018-07-11T07:29:59.405Z,28576
2018-07-11T07:30:59.409Z,28928
2018-07-11T07:31:59.447Z,30592
2018-07-11T07:32:59.356Z,31904
2018-07-11T07:33:59.406Z,28448
2018-07-11T07:34:59.345Z,27008
2018-07-11T07:35:59.376Z,32448
2018-07-11T07:36:59.451Z,38880
2018-07-11T07:37:59.467Z,42432
2018-07-11T07:38:59.354Z,41984
2018-07-11T07:39:59.428Z,36416
2018-07-11T07:40:59.395Z,30656
2018-07-11T07:41:59.374Z,28160
2018-07-11T07:42:59.344Z,28096
2018-07-11T07:43:59.311Z,30432
2018-07-11T07:44:59.393Z,32832
2018-07-11T07:45:59.396Z,31648
2018-07-11T07:46:59.430Z,30112
2018-07-11T07:47:59.395Z,30080
2018-07-11T07:48:59.444Z,30080
2018-07-11T07:49:59.397Z,27776
2018-07-11T07:50:59.408Z,26464
2018-07-11T07:51:59.350Z,27776
2018-07-11T07:52:59.422Z,30880
2018-07-11T07:53:59.412Z,33664
2018-07-11T07:54:59.472Z,34272
2018-07-11T07:55:59.488Z,33568
2018-07-11T07:56:59.356Z,33632
2018-07-11T07:57:59.391Z,34752
2018-07-11T07:58:59.408Z,35520
2018-07-11T07:59:59.324Z,36320
2018-07-11T08:00:59.375Z,38624
2018-07-11T08:01:59.388Z,42496
2018-07-11T08:02:59.375Z,43424
2018-07-11T08:03:59.361Z,40736
2018-07-11T08:04:59.448Z,37504
2018-07-11T08:05:59.455Z,35840
2018-07-11T08:06:59.442Z,34880
2018-07-11T08:07:59.398Z,34400
2018-07-11T08:08:59.454Z,34592
2018-07-11T08:09:59.463Z,35232
2018-07-11T08:10:59.459Z,36864
2018-07-11T08:11:59.460Z,38848
2018-07-11T08:12:59.423Z,39808
2018-07-11T08:13:59.397Z,39744
2018-07-11T08:14:59.462Z,39328
2018-07-11T08:15:59.425Z,38272
2018-07-11T08:16:59.462Z,36320
2018-07-11T08:17:59.394Z,35744
2018-07-11T08:18:59.462Z,36832
2018-07-11T08:19:59.468Z,38304
2018-07-11T08:20:59.401Z,40064
2018-07-11T08:21:59.466Z,41760
2018-07-11T08:22:59.468Z,42816
2018-07-11T08:23:59.397Z,42176
2018-07-11T08:24:59.470Z,38656
2018-07-11T08:25:59.403Z,33536
2018-07-11T08:26:59.446Z,29280
2018-07-11T08:27:59.414Z,26720
2018-07-11T08:28:59.438Z,24416
2018-07-11T08:29:59.431Z,21888
2018-07-11T08:30:59.475Z,20116
2018-07-11T08:31:59.498Z,19412
2018-07-11T08:32:59.506Z,19180
2018-07-11T08:33:59.505Z,19876
2018-07-11T08:34:59.525Z,20840
2018-07-11T08:35:59.435Z,22272
2018-07-11T08:36:59.500Z,24096
2018-07-11T08:37:59.447Z,26336
2018-07-11T08:38:59.467Z,28096
2018-07-11T08:39:59.400Z,29632
2018-07-11T08:40:59.425Z,31360
2018-07-11T08:41:59.464Z,33152
2018-07-11T08:42:59.399Z,34880
2018-07-11T08:43:59.473Z,36288
2018-07-11T08:44:59.424Z,37536
2018-07-11T08:45:59.437Z,38880
2018-07-11T08:46:59.474Z,40096
2018-07-11T08:47:59.406Z,41152
2018-07-11T08:48:59.416Z,42304
2018-07-11T08:49:59.377Z,43264
2018-07-11T08:50:59.466Z,44032
2018-07-11T08:51:59.415Z,44544
2018-07-11T08:52:59.423Z,44928
2018-07-11T08:53:59.379Z,45120
2018-07-11T08:54:59.421Z,45280
2018-07-11T08:55:59.378Z,45664
2018-07-11T08:56:59.467Z,46336
2018-07-11T08:57:59.427Z,47552
2018-07-11T08:58:59.492Z,49024
2018-07-11T08:59:59.400Z,49952
2018-07-11T09:00:59.399Z,50112
2018-07-11T09:01:59.512Z,49216
2018-07-11T09:02:59.525Z,48032
2018-07-11T09:03:59.530Z,47264
2018-07-11T09:04:59.455Z,47136
2018-07-11T09:05:59.534Z,47488
2018-07-11T09:06:59.495Z,48320
2018-07-11T09:07:59.470Z,50304
2018-07-11T09:08:59.477Z,53120
2018-07-11T09:09:59.416Z,56416
2018-07-11T09:10:59.531Z,58528
2018-07-11T09:11:59.472Z,58784
2018-07-11T09:12:59.577Z,56832
2018-07-11T09:13:59.448Z,54560
2018-07-11T09:14:59.529Z,54240
2018-07-11T09:15:59.487Z,54240
2018-07-11T09:16:59.481Z,55328
2018-07-11T09:17:59.546Z,57120
2018-07-11T09:18:59.479Z,57760
2018-07-11T09:19:59.411Z,57024
2018-07-11T09:20:59.504Z,57600
2018-07-11T09:21:59.534Z,59904
2018-07-11T09:22:59.502Z,64640
2018-07-11T09:23:59.547Z,67264
2018-07-11T09:24:59.507Z,67168
2018-07-11T09:25:59.430Z,65472
2018-07-11T09:26:59.507Z,62496
2018-07-11T09:27:59.475Z,59136
2018-07-11T09:28:59.465Z,56064
2018-07-11T09:29:59.384Z,52608
2018-07-11T09:30:59.499Z,49856
2018-07-11T09:31:59.490Z,49056
2018-07-11T09:32:59.444Z,51584
2018-07-11T09:33:59.544Z,55968
2018-07-11T09:34:59.401Z,59136
2018-07-11T09:35:59.471Z,62400
2018-07-11T09:36:59.405Z,64192
2018-07-11T09:37:59.475Z,65280
2018-07-11T09:38:59.516Z,64160
2018-07-11T09:39:59.454Z,62176
2018-07-11T09:40:59.521Z,59232
2018-07-11T09:41:59.460Z,56544
2018-07-11T09:42:59.519Z,53792
2018-07-11T09:43:59.470Z,50080
2018-07-11T09:44:59.525Z,48224
2018-07-11T09:45:59.522Z,48032
2018-07-11T09:46:59.456Z,49664
2018-07-11T09:47:59.526Z,52640
2018-07-11T09:48:59.530Z,56512
2018-07-11T09:49:59.465Z,58336
2018-07-11T09:50:59.528Z,58848
2018-07-11T09:51:59.527Z,59584
2018-07-11T09:52:59.526Z,58656
2018-07-11T09:53:59.471Z,58464
2018-07-11T09:54:59.563Z,57536
2018-07-11T09:55:59.502Z,54816
2018-07-11T09:56:59.529Z,52256
2018-07-11T09:57:59.503Z,51712
2018-07-11T09:58:59.455Z,51744
2018-07-11T09:59:59.505Z,52352
2018-07-11T10:00:59.499Z,52800
2018-07-11T10:01:59.497Z,52000
2018-07-11T10:02:59.532Z,50784
2018-07-11T10:03:59.555Z,49344
2018-07-11T10:04:59.568Z,48576
2018-07-11T10:05:59.510Z,47840
2018-07-11T10:06:59.557Z,46784
2018-07-11T10:07:59.542Z,44992
2018-07-11T10:08:59.537Z,42656
2018-07-11T10:09:59.473Z,40800
2018-07-11T10:10:59.539Z,40064
2018-07-11T10:11:59.504Z,40288
2018-07-11T10:12:59.544Z,42368
2018-07-11T10:13:59.505Z,44608
2018-07-11T10:14:59.472Z,46432
2018-07-11T10:15:59.476Z,48000
2018-07-11T10:16:59.542Z,48928
2018-07-11T10:17:59.570Z,49504
2018-07-11T10:18:59.578Z,49824
2018-07-11T10:19:59.508Z,51104
2018-07-11T10:20:59.545Z,53088
2018-07-11T10:21:59.453Z,54304
2018-07-11T10:22:59.522Z,54176
2018-07-11T10:23:59.541Z,52992
2018-07-11T10:24:59.509Z,52544
2018-07-11T10:25:59.510Z,52768
2018-07-11T10:26:59.453Z,53312
2018-07-11T10:27:59.509Z,53728
2018-07-11T10:28:59.490Z,54944
2018-07-11T10:29:59.552Z,56960
2018-07-11T10:30:59.494Z,58624
2018-07-11T10:31:59.485Z,59520
2018-07-11T10:32:59.553Z,59744
2018-07-11T10:33:59.487Z,58752
2018-07-11T10:34:59.554Z,56768
2018-07-11T10:35:59.552Z,55296
2018-07-11T10:36:59.486Z,53920
2018-07-11T10:37:59.557Z,52832
2018-07-11T10:38:59.518Z,51136
2018-07-11T10:39:59.457Z,49696
2018-07-11T10:40:59.520Z,50464
2018-07-11T10:41:59.468Z,48640
2018-07-11T10:42:59.497Z,48256
2018-07-11T10:43:59.515Z,47936
2018-07-11T10:44:59.578Z,47392
2018-07-11T10:45:59.587Z,46528
2018-07-11T10:46:59.519Z,45920
2018-07-11T10:47:59.494Z,46048
2018-07-11T10:48:59.523Z,46016
2018-07-11T10:49:59.552Z,45216
2018-07-11T10:50:59.521Z,43008
2018-07-11T10:51:59.552Z,40992
2018-07-11T10:52:59.572Z,41056
2018-07-11T10:53:59.473Z,42080
2018-07-11T10:54:59.554Z,43424
2018-07-11T10:55:59.479Z,44416
2018-07-11T10:56:59.490Z,43552
2018-07-11T10:57:59.492Z,42496
2018-07-11T10:58:59.507Z,42688
2018-07-11T10:59:59.506Z,42016
2018-07-11T11:01:05.699Z,40192
2018-07-11T11:01:59.502Z,38912
2018-07-11T11:02:59.507Z,37344
2018-07-11T11:03:59.576Z,35776
2018-07-11T11:04:59.512Z,34464
2018-07-11T11:05:59.598Z,33920
2018-07-11T11:06:59.576Z,33056
2018-07-11T11:07:59.691Z,32352
2018-07-11T11:08:59.576Z,32320
2018-07-11T11:09:59.560Z,32576
2018-07-11T11:10:59.590Z,32992
2018-07-11T11:11:59.553Z,33376
2018-07-11T11:12:59.618Z,33472
2018-07-11T11:13:59.479Z,33504
2018-07-11T11:14:59.480Z,32864
2018-07-11T11:15:59.519Z,31936
2018-07-11T11:16:59.532Z,30912
2018-07-11T11:17:59.556Z,29856
2018-07-11T11:18:59.617Z,28672
2018-07-11T11:19:59.509Z,27328
2018-07-11T11:20:59.563Z,25632
2018-07-11T11:21:59.621Z,24288
2018-07-11T11:22:59.589Z,23488
2018-07-11T11:23:59.566Z,23136
2018-07-11T11:24:59.576Z,23392
2018-07-11T11:25:59.607Z,24448
2018-07-11T11:26:59.626Z,26144
2018-07-11T11:27:59.565Z,28288
2018-07-11T11:28:59.515Z,31104
2018-07-11T11:29:59.526Z,34816
2018-07-11T11:30:59.525Z,37536
2018-07-11T11:31:59.656Z,37312
2018-07-11T11:32:59.527Z,34912
2018-07-11T11:33:59.592Z,31552
2018-07-11T11:34:59.532Z,30560
2018-07-11T11:35:59.563Z,30752
2018-07-11T11:36:59.599Z,30624
2018-07-11T11:37:59.601Z,30400
2018-07-11T11:38:59.535Z,30240
2018-07-11T11:39:59.500Z,29952
2018-07-11T11:40:59.573Z,30176
2018-07-11T11:41:59.781Z,30816
2018-07-11T11:42:59.706Z,31584
2018-07-11T11:43:59.641Z,31808
2018-07-11T11:44:59.574Z,31584
2018-07-11T11:45:59.541Z,30656
2018-07-11T11:46:59.584Z,29696
2018-07-11T11:47:59.650Z,28928
2018-07-11T11:48:59.604Z,28320
2018-07-11T11:49:59.638Z,27616
2018-07-11T11:50:59.631Z,26848
2018-07-11T11:51:59.636Z,26336
2018-07-11T11:52:59.556Z,26112
2018-07-11T11:53:59.583Z,26368
2018-07-11T11:54:59.806Z,26880
2018-07-11T11:55:59.591Z,27936
2018-07-11T11:56:59.589Z,29760
2018-07-11T11:57:59.577Z,31616
2018-07-11T11:58:59.584Z,32672
2018-07-11T11:59:59.638Z,32672
2018-07-11T12:00:59.640Z,32480
2018-07-11T12:01:59.518Z,32512
2018-07-11T12:02:59.572Z,32320
2018-07-11T12:03:59.643Z,31360
2018-07-11T12:04:59.553Z,30016
2018-07-11T12:05:59.709Z,28832
2018-07-11T12:06:59.620Z,28032
2018-07-11T12:07:59.592Z,27008
2018-07-11T12:08:59.589Z,25728
2018-07-11T12:09:59.553Z,25152
2018-07-11T12:10:59.624Z,26176
2018-07-11T12:11:59.620Z,28544
2018-07-11T12:12:59.559Z,30784
2018-07-11T12:13:59.626Z,31648
2018-07-11T12:14:59.556Z,32608
2018-07-11T12:15:59.558Z,33184
2018-07-11T12:16:59.623Z,30656
2018-07-11T12:17:59.564Z,28192
2018-07-11T12:18:59.624Z,27168
2018-07-11T12:19:59.558Z,26592
2018-07-11T12:20:59.630Z,24992
2018-07-11T12:21:59.564Z,22304
2018-07-11T12:22:59.563Z,19756
2018-07-11T12:23:59.631Z,19312
2018-07-11T12:24:59.599Z,20388
2018-07-11T12:25:59.567Z,23968
2018-07-11T12:26:59.633Z,28736
2018-07-11T12:27:59.519Z,33504
2018-07-11T12:28:59.567Z,37792
2018-07-11T12:29:59.572Z,37856
2018-07-11T12:30:59.645Z,34656
2018-07-11T12:31:59.632Z,30656
2018-07-11T12:32:59.554Z,26336
2018-07-11T12:33:59.594Z,25280
2018-07-11T12:34:59.575Z,28064
2018-07-11T12:35:59.673Z,32512
2018-07-11T12:36:59.637Z,34816
2018-07-11T12:37:59.637Z,35040
2018-07-11T12:38:59.620Z,34912
2018-07-11T12:39:59.603Z,34368
2018-07-11T12:40:59.629Z,33280
2018-07-11T12:41:59.627Z,32480
2018-07-11T12:42:59.604Z,32544
2018-07-11T12:43:59.516Z,32928
2018-07-11T12:44:59.562Z,32704
2018-07-11T12:45:59.639Z,35072
2018-07-11T12:46:59.564Z,40032
2018-07-11T12:47:59.577Z,40960
2018-07-11T12:48:59.552Z,38752
2018-07-11T12:49:59.645Z,35456
2018-07-11T12:50:59.597Z,32640
2018-07-11T12:51:59.734Z,30592
2018-07-11T12:52:59.692Z,28448
2018-07-11T12:53:59.549Z,25120
2018-07-11T12:54:59.611Z,21340
2018-07-11T12:55:59.629Z,19648
2018-07-11T12:56:59.576Z,19264
2018-07-11T12:57:59.637Z,19856
2018-07-11T12:58:59.682Z,20372
2018-07-11T12:59:59.655Z,21024
2018-07-11T13:00:59.653Z,22688
2018-07-11T13:01:59.557Z,23808
2018-07-11T13:02:59.591Z,27584
2018-07-11T13:03:59.735Z,31264
2018-07-11T13:04:59.679Z,31008
2018-07-11T13:05:59.622Z,36096
2018-07-11T13:06:59.690Z,43040
2018-07-11T13:07:59.617Z,43232
2018-07-11T13:08:59.584Z,39104
2018-07-11T13:09:59.628Z,35104
2018-07-11T13:10:59.655Z,36288
2018-07-11T13:11:59.685Z,40992
2018-07-11T13:12:59.697Z,43424
2018-07-11T13:13:59.633Z,44704
2018-07-11T13:14:59.696Z,46560
2018-07-11T13:15:59.639Z,47904
2018-07-11T13:16:59.754Z,44768
2018-07-11T13:17:59.697Z,39488
2018-07-11T13:18:59.590Z,37408
2018-07-11T13:19:59.667Z,35968
2018-07-11T13:20:59.668Z,31232